createdAt,value
2016-07-10T00:00:25.764Z,965.19
2016-07-10T00:01:25.781Z,965.22
2016-07-10T00:02:25.796Z,965.22
2016-07-10T00:03:25.792Z,965.21
2016-07-10T00:04:25.812Z,965.19
2016-07-10T00:05:25.819Z,965.15
2016-07-10T00:06:25.820Z,965.16
2016-07-10T00:07:25.828Z,965.15
2016-07-10T00:08:25.834Z,965.13
2016-07-10T00:09:25.858Z,965.12
2016-07-10T00:10:25.863Z,965.16
2016-07-10T00:11:25.863Z,965.14
2016-07-10T00:12:25.873Z,965.11
2016-07-10T00:13:25.896Z,965.11
2016-07-10T00:14:25.903Z,965.11
2016-07-10T00:15:25.916Z,965.1
2016-07-10T00:16:25.912Z,965.08
2016-07-10T00:17:25.930Z,965.08
2016-07-10T00:18:25.929Z,965.09
2016-07-10T00:19:25.950Z,965.08
2016-07-10T00:20:25.960Z,965.11
2016-07-10T00:21:25.957Z,965.06
2016-07-10T00:22:25.975Z,965.04
2016-07-10T00:23:25.985Z,965.01
2016-07-10T00:24:25.994Z,965.01
2016-07-10T00:25:25.993Z,965.03
2016-07-10T00:26:26.003Z,965
2016-07-10T00:27:26.012Z,964.99
2016-07-10T00:28:26.021Z,965.03
2016-07-10T00:29:26.038Z,964.97
2016-07-10T00:30:26.040Z,964.96
2016-07-10T00:31:26.061Z,964.93
2016-07-10T00:32:26.066Z,964.92
2016-07-10T00:33:26.072Z,964.94
2016-07-10T00:34:26.075Z,964.91
2016-07-10T00:35:26.082Z,964.88
2016-07-10T00:36:26.108Z,964.85
2016-07-10T00:37:26.115Z,964.88
2016-07-10T00:38:26.109Z,964.87
2016-07-10T00:39:26.132Z,964.78
2016-07-10T00:40:26.130Z,964.78
2016-07-10T00:41:26.150Z,964.75
2016-07-10T00:42:26.151Z,964.73
2016-07-10T00:43:26.159Z,964.7
2016-07-10T00:44:26.168Z,964.73
2016-07-10T00:45:26.188Z,964.72
2016-07-10T00:46:26.200Z,964.72
2016-07-10T00:47:26.204Z,964.71
2016-07-10T00:48:26.200Z,964.67
2016-07-10T00:49:26.211Z,964.67
2016-07-10T00:50:26.232Z,964.66
2016-07-10T00:51:26.230Z,964.62
2016-07-10T00:52:26.253Z,964.65
2016-07-10T00:53:26.262Z,964.62
2016-07-10T00:54:26.277Z,964.61
2016-07-10T00:55:26.267Z,964.61
2016-07-10T00:56:26.284Z,964.61
2016-07-10T00:57:26.296Z,964.57
2016-07-10T00:58:26.305Z,964.58
2016-07-10T00:59:26.319Z,964.56
2016-07-10T01:00:26.314Z,964.56
2016-07-10T01:01:26.322Z,964.54
2016-07-10T01:02:26.332Z,964.5
2016-07-10T01:03:26.346Z,964.54
2016-07-10T01:04:26.362Z,964.52
2016-07-10T01:05:26.359Z,964.5
2016-07-10T01:06:26.380Z,964.49
2016-07-10T01:07:26.396Z,964.46
2016-07-10T01:08:26.397Z,964.45
2016-07-10T01:09:26.405Z,964.45
2016-07-10T01:10:26.417Z,964.44
2016-07-10T01:11:26.413Z,964.44
2016-07-10T01:12:26.434Z,964.45
2016-07-10T01:13:26.433Z,964.41
2016-07-10T01:14:26.441Z,964.42
2016-07-10T01:15:26.463Z,964.4
2016-07-10T01:16:26.470Z,964.44
2016-07-10T01:17:26.467Z,964.43
2016-07-10T01:18:26.478Z,964.43
2016-07-10T01:19:26.497Z,964.39
2016-07-10T01:20:26.509Z,964.4
2016-07-10T01:21:26.516Z,964.37
2016-07-10T01:22:26.524Z,964.36
2016-07-10T01:23:26.533Z,964.35
2016-07-10T01:24:26.531Z,964.39
2016-07-10T01:25:26.543Z,964.41
2016-07-10T01:26:26.554Z,964.37
2016-07-10T01:27:26.560Z,964.36
2016-07-10T01:28:26.569Z,964.36
2016-07-10T01:29:26.579Z,964.34
2016-07-10T01:30:26.598Z,964.35
2016-07-10T01:31:26.621Z,964.35
2016-07-10T01:32:26.604Z,964.32
2016-07-10T01:33:26.623Z,964.3
2016-07-10T01:34:26.635Z,964.27
2016-07-10T01:35:26.633Z,964.3
2016-07-10T01:36:26.651Z,964.3
2016-07-10T01:37:26.652Z,964.31
2016-07-10T01:38:26.659Z,964.28
2016-07-10T01:39:26.670Z,964.32
2016-07-10T01:40:26.689Z,964.34
2016-07-10T01:41:26.690Z,964.34
2016-07-10T01:42:26.705Z,964.32
2016-07-10T01:43:26.708Z,964.32
2016-07-10T01:44:26.726Z,964.31
2016-07-10T01:45:26.734Z,964.27
2016-07-10T01:46:26.734Z,964.31
2016-07-10T01:47:26.756Z,964.3
2016-07-10T01:48:26.763Z,964.3
2016-07-10T01:49:26.773Z,964.28
2016-07-10T01:50:26.783Z,964.29
2016-07-10T01:51:26.780Z,964.29
2016-07-10T01:52:26.790Z,964.29
2016-07-10T01:53:26.795Z,964.28
2016-07-10T01:54:26.806Z,964.24
2016-07-10T01:55:26.826Z,964.27
2016-07-10T01:56:26.833Z,964.23
2016-07-10T01:57:26.866Z,964.19
2016-07-10T01:58:26.851Z,964.24
2016-07-10T01:59:26.863Z,964.23
2016-07-10T02:00:26.857Z,964.22
2016-07-10T02:01:26.878Z,964.22
2016-07-10T02:02:26.887Z,964.23
2016-07-10T02:03:26.888Z,964.26
2016-07-10T02:04:26.895Z,964.22
2016-07-10T02:05:26.917Z,964.24
2016-07-10T02:06:26.915Z,964.24
2016-07-10T02:07:26.924Z,964.23
2016-07-10T02:08:26.932Z,964.21
2016-07-10T02:09:26.941Z,964.19
2016-07-10T02:10:26.950Z,964.19
2016-07-10T02:11:26.969Z,964.18
2016-07-10T02:12:26.979Z,964.15
2016-07-10T02:13:26.987Z,964.13
2016-07-10T02:14:26.989Z,964.18
2016-07-10T02:15:26.996Z,964.14
2016-07-10T02:16:27.014Z,964.14
2016-07-10T02:17:27.014Z,964.16
2016-07-10T02:18:27.020Z,964.14
2016-07-10T02:19:27.042Z,964.13
2016-07-10T02:20:27.041Z,964.12
2016-07-10T02:21:27.048Z,964.04
2016-07-10T02:22:27.070Z,964.1
2016-07-10T02:23:27.069Z,964.1
2016-07-10T02:24:27.077Z,964.1
2016-07-10T02:25:27.098Z,964.08
2016-07-10T02:26:27.102Z,964.07
2016-07-10T02:27:27.102Z,964.07
2016-07-10T02:28:27.123Z,964.04
2016-07-10T02:29:27.130Z,964.06
2016-07-10T02:30:27.129Z,964.07
2016-07-10T02:31:27.150Z,964.08
2016-07-10T02:32:27.159Z,964.05
2016-07-10T02:33:27.169Z,964.09
2016-07-10T02:34:27.178Z,964.06
2016-07-10T02:35:27.187Z,964.04
2016-07-10T02:36:27.197Z,964.03
2016-07-10T02:37:27.204Z,964.05
2016-07-10T02:38:27.213Z,964
2016-07-10T02:39:27.212Z,964.04
2016-07-10T02:40:27.231Z,964.06
2016-07-10T02:41:27.231Z,964.03
2016-07-10T02:42:27.237Z,964.05
2016-07-10T02:43:27.259Z,964.04
2016-07-10T02:44:27.255Z,964.04
2016-07-10T02:45:27.276Z,964.03
2016-07-10T02:46:27.285Z,964.03
2016-07-10T02:47:27.284Z,964.06
2016-07-10T02:48:27.290Z,964.04
2016-07-10T02:49:27.303Z,964.04
2016-07-10T02:50:27.311Z,964.06
2016-07-10T02:51:27.332Z,964.07
2016-07-10T02:52:27.338Z,964.05
2016-07-10T02:53:27.371Z,964.07
2016-07-10T02:54:27.359Z,964.07
2016-07-10T02:55:27.366Z,964.07
2016-07-10T02:56:27.365Z,964.03
2016-07-10T02:57:27.375Z,964.02
2016-07-10T02:58:27.384Z,964.01
2016-07-10T02:59:27.390Z,964.03
2016-07-10T03:00:27.400Z,964.02
2016-07-10T03:01:27.420Z,964.04
2016-07-10T03:02:27.419Z,964.03
2016-07-10T03:03:27.435Z,964.05
2016-07-10T03:04:27.440Z,964.05
2016-07-10T03:05:27.457Z,964.04
2016-07-10T03:06:27.466Z,964.06
2016-07-10T03:07:27.473Z,964.07
2016-07-10T03:08:27.483Z,964.05
2016-07-10T03:09:27.491Z,964.04
2016-07-10T03:10:27.502Z,964.07
2016-07-10T03:11:27.500Z,964.06
2016-07-10T03:12:27.511Z,964
2016-07-10T03:13:27.518Z,964
2016-07-10T03:14:27.537Z,964.03
2016-07-10T03:15:27.547Z,964.03
2016-07-10T03:16:27.555Z,964.02
2016-07-10T03:17:27.563Z,964.02
2016-07-10T03:18:27.572Z,964
2016-07-10T03:19:27.583Z,963.97
2016-07-10T03:20:27.588Z,963.99
2016-07-10T03:21:27.599Z,963.98
2016-07-10T03:22:27.608Z,963.94
2016-07-10T03:23:27.606Z,963.95
2016-07-10T03:24:27.626Z,963.96
2016-07-10T03:25:27.636Z,963.99
2016-07-10T03:26:27.635Z,963.95
2016-07-10T03:27:27.654Z,963.95
2016-07-10T03:28:27.662Z,963.97
2016-07-10T03:29:27.670Z,963.95
2016-07-10T03:30:27.671Z,963.95
2016-07-10T03:31:27.677Z,963.92
2016-07-10T03:32:27.685Z,963.88
2016-07-10T03:33:27.705Z,963.89
2016-07-10T03:34:27.706Z,963.9
2016-07-10T03:35:27.723Z,963.88
2016-07-10T03:36:27.724Z,963.86
2016-07-10T03:37:27.742Z,963.88
2016-07-10T03:38:27.741Z,963.91
2016-07-10T03:39:27.760Z,963.92
2016-07-10T03:40:27.758Z,963.91
2016-07-10T03:41:27.767Z,963.95
2016-07-10T03:42:27.777Z,963.93
2016-07-10T03:43:27.796Z,963.96
2016-07-10T03:44:27.795Z,963.96
2016-07-10T03:45:27.802Z,963.92
2016-07-10T03:46:27.812Z,963.95
2016-07-10T03:47:27.822Z,963.93
2016-07-10T03:48:27.830Z,963.89
2016-07-10T03:49:27.850Z,963.92
2016-07-10T03:50:27.857Z,963.88
2016-07-10T03:51:27.857Z,963.91
2016-07-10T03:52:27.887Z,963.92
2016-07-10T03:53:27.884Z,963.88
2016-07-10T03:54:27.883Z,963.9
2016-07-10T03:55:27.892Z,963.9
2016-07-10T03:56:27.914Z,963.89
2016-07-10T03:57:27.911Z,963.85
2016-07-10T03:58:27.929Z,963.94
2016-07-10T03:59:27.937Z,963.93
2016-07-10T04:00:27.948Z,963.97
2016-07-10T04:01:27.957Z,963.97
2016-07-10T04:02:27.964Z,963.95
2016-07-10T04:03:27.972Z,963.93
2016-07-10T04:04:27.998Z,963.89
2016-07-10T04:05:27.992Z,963.88
2016-07-10T04:06:28.001Z,963.9
2016-07-10T04:07:27.998Z,963.87
2016-07-10T04:08:28.016Z,963.89
2016-07-10T04:09:28.016Z,963.89
2016-07-10T04:10:28.037Z,963.87
2016-07-10T04:11:28.035Z,963.92
2016-07-10T04:12:28.051Z,963.87
2016-07-10T04:13:28.062Z,963.92
2016-07-10T04:14:28.073Z,963.89
2016-07-10T04:15:28.085Z,963.92
2016-07-10T04:16:28.078Z,963.87
2016-07-10T04:17:28.099Z,963.92
2016-07-10T04:18:28.106Z,963.88
2016-07-10T04:19:28.117Z,963.86
2016-07-10T04:20:28.125Z,963.87
2016-07-10T04:21:28.135Z,963.88
2016-07-10T04:22:28.142Z,963.89
2016-07-10T04:23:28.141Z,963.88
2016-07-10T04:24:28.159Z,963.86
2016-07-10T04:25:28.159Z,963.88
2016-07-10T04:26:28.177Z,963.86
2016-07-10T04:27:28.175Z,963.89
2016-07-10T04:28:28.196Z,963.9
2016-07-10T04:29:28.205Z,963.93
2016-07-10T04:30:28.215Z,963.89
2016-07-10T04:31:28.222Z,963.9
2016-07-10T04:32:28.218Z,963.92
2016-07-10T04:33:28.230Z,963.91
2016-07-10T04:34:28.240Z,963.95
2016-07-10T04:35:28.256Z,963.9
2016-07-10T04:36:28.264Z,963.92
2016-07-10T04:37:28.267Z,963.86
2016-07-10T04:38:28.274Z,963.88
2016-07-10T04:39:28.285Z,963.9
2016-07-10T04:40:28.291Z,963.88
2016-07-10T04:41:28.309Z,963.91
2016-07-10T04:42:28.308Z,963.93
2016-07-10T04:43:28.332Z,963.91
2016-07-10T04:44:28.332Z,963.9
2016-07-10T04:45:28.337Z,963.93
2016-07-10T04:46:28.359Z,963.94
2016-07-10T04:47:28.429Z,963.93
2016-07-10T04:48:28.365Z,963.91
2016-07-10T04:49:28.384Z,963.93
2016-07-10T04:50:28.392Z,963.94
2016-07-10T04:51:28.403Z,963.91
2016-07-10T04:52:28.401Z,963.95
2016-07-10T04:53:28.423Z,963.93
2016-07-10T04:54:28.420Z,963.99
2016-07-10T04:55:28.427Z,963.97
2016-07-10T04:56:28.436Z,963.97
2016-07-10T04:57:28.457Z,963.95
2016-07-10T04:58:28.466Z,963.96
2016-07-10T04:59:28.462Z,963.96
2016-07-10T05:00:28.485Z,963.95
2016-07-10T05:01:28.492Z,963.94
2016-07-10T05:02:28.502Z,963.94
2016-07-10T05:03:28.510Z,963.98
2016-07-10T05:04:28.518Z,963.95
2016-07-10T05:05:28.529Z,963.96
2016-07-10T05:06:28.524Z,963.94
2016-07-10T05:07:28.545Z,963.93
2016-07-10T05:08:28.544Z,963.95
2016-07-10T05:09:28.553Z,963.94
2016-07-10T05:10:28.578Z,963.94
2016-07-10T05:11:28.572Z,963.94
2016-07-10T05:12:28.581Z,963.95
2016-07-10T05:13:28.590Z,963.94
2016-07-10T05:14:28.598Z,963.92
2016-07-10T05:15:28.619Z,963.93
2016-07-10T05:16:28.627Z,963.97
2016-07-10T05:17:28.637Z,963.95
2016-07-10T05:18:28.645Z,963.93
2016-07-10T05:19:28.643Z,963.93
2016-07-10T05:20:28.652Z,963.89
2016-07-10T05:21:28.661Z,963.9
2016-07-10T05:22:28.682Z,963.92
2016-07-10T05:23:28.677Z,963.89
2016-07-10T05:24:28.689Z,963.9
2016-07-10T05:25:28.709Z,963.9
2016-07-10T05:26:28.705Z,963.89
2016-07-10T05:27:28.727Z,963.89
2016-07-10T05:28:28.725Z,963.88
2016-07-10T05:29:28.733Z,963.87
2016-07-10T05:30:28.743Z,963.88
2016-07-10T05:31:28.752Z,963.85
2016-07-10T05:32:28.762Z,963.87
2016-07-10T05:33:28.809Z,963.85
2016-07-10T05:34:28.777Z,963.85
2016-07-10T05:35:28.798Z,963.87
2016-07-10T05:36:28.807Z,963.88
2016-07-10T05:37:28.806Z,963.86
2016-07-10T05:38:28.827Z,963.86
2016-07-10T05:39:28.835Z,963.87
2016-07-10T05:40:28.845Z,963.85
2016-07-10T05:41:28.851Z,963.88
2016-07-10T05:42:28.852Z,963.85
2016-07-10T05:43:28.870Z,963.87
2016-07-10T05:44:28.879Z,963.85
2016-07-10T05:45:28.893Z,963.84
2016-07-10T05:46:28.889Z,963.83
2016-07-10T05:47:28.898Z,963.84
2016-07-10T05:48:28.904Z,963.79
2016-07-10T05:49:28.927Z,963.77
2016-07-10T05:50:28.935Z,963.83
2016-07-10T05:51:28.932Z,963.8
2016-07-10T05:52:28.954Z,963.78
2016-07-10T05:53:28.961Z,963.78
2016-07-10T05:54:28.969Z,963.76
2016-07-10T05:55:28.980Z,963.74
2016-07-10T05:56:28.976Z,963.78
2016-07-10T05:57:28.990Z,963.78
2016-07-10T05:58:29.006Z,963.77
2016-07-10T05:59:29.016Z,963.8
2016-07-10T06:00:29.029Z,963.79
2016-07-10T06:01:29.024Z,963.8
2016-07-10T06:02:29.032Z,963.78
2016-07-10T06:03:29.041Z,963.79
2016-07-10T06:04:29.051Z,963.82
2016-07-10T06:05:29.073Z,963.79
2016-07-10T06:06:29.067Z,963.79
2016-07-10T06:07:29.078Z,963.79
2016-07-10T06:08:29.085Z,963.77
2016-07-10T06:09:29.095Z,963.76
2016-07-10T06:10:29.104Z,963.77
2016-07-10T06:11:29.126Z,963.81
2016-07-10T06:12:29.121Z,963.77
2016-07-10T06:13:29.130Z,963.77
2016-07-10T06:14:29.140Z,963.75
2016-07-10T06:15:29.162Z,963.74
2016-07-10T06:16:29.169Z,963.71
2016-07-10T06:17:29.168Z,963.72
2016-07-10T06:18:29.177Z,963.72
2016-07-10T06:19:29.195Z,963.73
2016-07-10T06:20:29.208Z,963.7
2016-07-10T06:21:29.213Z,963.71
2016-07-10T06:22:29.224Z,963.71
2016-07-10T06:23:29.235Z,963.72
2016-07-10T06:24:29.242Z,963.71
2016-07-10T06:25:29.253Z,963.7
2016-07-10T06:26:29.260Z,963.72
2016-07-10T06:27:29.272Z,963.76
2016-07-10T06:28:29.272Z,963.75
2016-07-10T06:29:29.279Z,963.77
2016-07-10T06:30:29.298Z,963.75
2016-07-10T06:31:29.296Z,963.76
2016-07-10T06:32:29.305Z,963.76
2016-07-10T06:33:29.314Z,963.78
2016-07-10T06:34:29.321Z,963.81
2016-07-10T06:35:29.341Z,963.78
2016-07-10T06:36:29.341Z,963.83
2016-07-10T06:37:29.352Z,963.82
2016-07-10T06:38:29.371Z,963.8
2016-07-10T06:39:29.368Z,963.84
2016-07-10T06:40:29.387Z,963.85
2016-07-10T06:41:29.387Z,963.86
2016-07-10T06:42:29.395Z,963.86
2016-07-10T06:43:29.417Z,963.84
2016-07-10T06:44:29.415Z,963.82
2016-07-10T06:45:29.422Z,963.85
2016-07-10T06:46:29.433Z,963.82
2016-07-10T06:47:29.443Z,963.82
2016-07-10T06:48:29.464Z,963.81
2016-07-10T06:49:29.460Z,963.85
2016-07-10T06:50:29.480Z,963.81
2016-07-10T06:51:29.491Z,963.78
2016-07-10T06:52:29.485Z,963.81
2016-07-10T06:53:29.509Z,963.77
2016-07-10T06:54:29.506Z,963.76
2016-07-10T06:55:29.516Z,963.78
2016-07-10T06:56:29.524Z,963.76
2016-07-10T06:57:29.544Z,963.74
2016-07-10T06:58:29.552Z,963.73
2016-07-10T06:59:29.552Z,963.77
2016-07-10T07:00:29.561Z,963.76
2016-07-10T07:01:29.568Z,963.73
2016-07-10T07:02:29.589Z,963.77
2016-07-10T07:03:29.600Z,963.76
2016-07-10T07:04:29.609Z,963.72
2016-07-10T07:05:29.606Z,963.72
2016-07-10T07:06:29.623Z,963.72
2016-07-10T07:07:29.622Z,963.74
2016-07-10T07:08:29.632Z,963.71
2016-07-10T07:09:29.641Z,963.75
2016-07-10T07:10:29.649Z,963.7
2016-07-10T07:11:29.671Z,963.74
2016-07-10T07:12:29.679Z,963.74
2016-07-10T07:13:29.688Z,963.73
2016-07-10T07:14:29.696Z,963.7
2016-07-10T07:15:29.698Z,963.68
2016-07-10T07:16:29.715Z,963.66
2016-07-10T07:17:29.730Z,963.71
2016-07-10T07:18:29.723Z,963.67
2016-07-10T07:19:29.731Z,963.67
2016-07-10T07:20:29.741Z,963.65
2016-07-10T07:21:29.761Z,963.67
2016-07-10T07:22:29.758Z,963.66
2016-07-10T07:23:29.770Z,963.61
2016-07-10T07:24:29.787Z,963.61
2016-07-10T07:25:29.796Z,963.62
2016-07-10T07:26:29.794Z,963.61
2016-07-10T07:27:29.823Z,963.57
2016-07-10T07:28:29.824Z,963.57
2016-07-10T07:29:29.822Z,963.58
2016-07-10T07:30:29.841Z,963.57
2016-07-10T07:31:29.852Z,963.56
2016-07-10T07:32:29.863Z,963.53
2016-07-10T07:33:29.859Z,963.51
2016-07-10T07:34:29.880Z,963.52
2016-07-10T07:35:29.881Z,963.5
2016-07-10T07:36:29.887Z,963.54
2016-07-10T07:37:29.895Z,963.51
2016-07-10T07:38:29.904Z,963.52
2016-07-10T07:39:29.924Z,963.55
2016-07-10T07:40:29.936Z,963.49
2016-07-10T07:41:29.933Z,963.53
2016-07-10T07:42:29.942Z,963.54
2016-07-10T07:43:29.960Z,963.52
2016-07-10T07:44:29.971Z,963.57
2016-07-10T07:45:29.966Z,963.55
2016-07-10T07:46:29.982Z,963.54
2016-07-10T07:47:30.003Z,963.53
2016-07-10T07:48:30.007Z,963.51
2016-07-10T07:49:30.018Z,963.48
2016-07-10T07:50:30.028Z,963.52
2016-07-10T07:51:30.024Z,963.49
2016-07-10T07:52:30.033Z,963.49
2016-07-10T07:53:30.043Z,963.48
2016-07-10T07:54:30.064Z,963.48
2016-07-10T07:55:30.073Z,963.46
2016-07-10T07:56:30.072Z,963.46
2016-07-10T07:57:30.089Z,963.43
2016-07-10T07:58:30.089Z,963.42
2016-07-10T07:59:30.110Z,963.44
2016-07-10T08:00:30.118Z,963.43
2016-07-10T08:01:30.127Z,963.44
2016-07-10T08:02:30.140Z,963.46
2016-07-10T08:03:30.136Z,963.43
2016-07-10T08:04:30.143Z,963.45
2016-07-10T08:05:30.152Z,963.45
2016-07-10T08:06:30.172Z,963.43
2016-07-10T08:07:30.184Z,963.41
2016-07-10T08:08:30.191Z,963.39
2016-07-10T08:09:30.191Z,963.44
2016-07-10T08:10:30.207Z,963.45
2016-07-10T08:11:30.209Z,963.4
2016-07-10T08:12:30.215Z,963.41
2016-07-10T08:13:30.225Z,963.41
2016-07-10T08:14:30.234Z,963.42
2016-07-10T08:15:30.244Z,963.42
2016-07-10T08:16:30.250Z,963.41
2016-07-10T08:17:30.262Z,963.4
2016-07-10T08:18:30.270Z,963.39
2016-07-10T08:19:30.279Z,963.37
2016-07-10T08:20:30.288Z,963.37
2016-07-10T08:21:30.298Z,963.3
2016-07-10T08:22:30.317Z,963.31
2016-07-10T08:23:30.319Z,963.23
2016-07-10T08:24:30.324Z,963.27
2016-07-10T08:25:30.335Z,963.29
2016-07-10T08:26:30.354Z,963.29
2016-07-10T08:27:30.363Z,963.26
2016-07-10T08:28:30.372Z,963.27
2016-07-10T08:29:30.368Z,963.22
2016-07-10T08:30:30.392Z,963.22
2016-07-10T08:31:30.401Z,963.22
2016-07-10T08:32:30.410Z,963.24
2016-07-10T08:33:30.417Z,963.22
2016-07-10T08:34:30.418Z,963.21
2016-07-10T08:35:30.424Z,963.23
2016-07-10T08:36:30.437Z,963.22
2016-07-10T08:37:30.452Z,963.21
2016-07-10T08:38:30.461Z,963.2
2016-07-10T08:39:30.473Z,963.22
2016-07-10T08:40:30.482Z,963.18
2016-07-10T08:41:30.480Z,963.16
2016-07-10T08:42:30.490Z,963.18
2016-07-10T08:43:30.509Z,963.15
2016-07-10T08:44:30.519Z,963.13
2016-07-10T08:45:30.519Z,963.14
2016-07-10T08:46:30.544Z,963.16
2016-07-10T08:47:30.545Z,963.08
2016-07-10T08:48:30.543Z,963.06
2016-07-10T08:49:30.565Z,963.02
2016-07-10T08:50:30.566Z,963.05
2016-07-10T08:51:30.582Z,963.02
2016-07-10T08:52:30.594Z,963.01
2016-07-10T08:53:30.592Z,962.94
2016-07-10T08:54:30.599Z,962.92
2016-07-10T08:55:30.619Z,962.93
2016-07-10T08:56:30.627Z,962.91
2016-07-10T08:57:30.639Z,962.89
2016-07-10T08:58:30.639Z,962.88
2016-07-10T08:59:30.656Z,962.86
2016-07-10T09:00:30.656Z,962.82
2016-07-10T09:01:30.676Z,962.82
2016-07-10T09:02:30.685Z,962.81
2016-07-10T09:03:30.683Z,962.81
2016-07-10T09:04:30.703Z,962.78
2016-07-10T09:05:30.711Z,962.82
2016-07-10T09:06:30.722Z,962.79
2016-07-10T09:07:30.732Z,962.82
2016-07-10T09:08:30.727Z,962.78
2016-07-10T09:09:30.746Z,962.79
2016-07-10T09:10:30.759Z,962.76
2016-07-10T09:11:30.766Z,962.73
2016-07-10T09:12:30.777Z,962.77
2016-07-10T09:13:30.776Z,962.73
2016-07-10T09:14:30.790Z,962.74
2016-07-10T09:15:30.801Z,962.71
2016-07-10T09:16:30.813Z,962.67
2016-07-10T09:17:30.811Z,962.69
2016-07-10T09:18:30.834Z,962.68
2016-07-10T09:19:30.844Z,962.71
2016-07-10T09:20:30.842Z,962.73
2016-07-10T09:21:30.859Z,962.68
2016-07-10T09:22:30.858Z,962.65
2016-07-10T09:23:30.868Z,962.69
2016-07-10T09:24:30.885Z,962.68
2016-07-10T09:25:30.885Z,962.64
2016-07-10T09:26:30.905Z,962.61
2016-07-10T09:27:30.905Z,962.62
2016-07-10T09:28:30.925Z,962.61
2016-07-10T09:29:30.923Z,962.61
2016-07-10T09:30:30.931Z,962.59
2016-07-10T09:31:30.943Z,962.62
2016-07-10T09:32:30.960Z,962.59
2016-07-10T09:33:30.969Z,962.54
2016-07-10T09:34:30.980Z,962.57
2016-07-10T09:35:30.978Z,962.56
2016-07-10T09:36:31.001Z,962.53
2016-07-10T09:37:31.008Z,962.53
2016-07-10T09:38:31.009Z,962.46
2016-07-10T09:39:31.017Z,962.46
2016-07-10T09:40:31.035Z,962.44
2016-07-10T09:41:31.048Z,962.46
2016-07-10T09:42:31.041Z,962.43
2016-07-10T09:43:31.055Z,962.41
2016-07-10T09:44:31.074Z,962.46
2016-07-10T09:45:31.074Z,962.45
2016-07-10T09:46:31.082Z,962.45
2016-07-10T09:47:31.091Z,962.42
2016-07-10T09:48:31.100Z,962.41
2016-07-10T09:49:31.121Z,962.4
2016-07-10T09:50:31.141Z,962.41
2016-07-10T09:51:31.130Z,962.36
2016-07-10T09:52:31.145Z,962.35
2016-07-10T09:53:31.156Z,962.34
2016-07-10T09:54:31.155Z,962.39
2016-07-10T09:55:31.168Z,962.3
2016-07-10T09:56:31.183Z,962.36
2016-07-10T09:57:31.199Z,962.34
2016-07-10T09:58:31.204Z,962.37
2016-07-10T09:59:31.207Z,962.37
2016-07-10T10:00:31.260Z,962.34
2016-07-10T10:01:31.224Z,962.34
2016-07-10T10:02:31.242Z,962.33
2016-07-10T10:03:31.250Z,962.35
2016-07-10T10:04:31.260Z,962.38
2016-07-10T10:05:31.271Z,962.37
2016-07-10T10:06:31.268Z,962.37
2016-07-10T10:07:31.278Z,962.39
2016-07-10T10:08:31.297Z,962.41
2016-07-10T10:09:31.305Z,962.37
2016-07-10T10:10:31.303Z,962.39
2016-07-10T10:11:31.315Z,962.37
2016-07-10T10:12:31.326Z,962.33
2016-07-10T10:13:31.344Z,962.35
2016-07-10T10:14:31.352Z,962.37
2016-07-10T10:15:31.351Z,962.34
2016-07-10T10:16:31.362Z,962.32
2016-07-10T10:17:31.382Z,962.3
2016-07-10T10:18:31.379Z,962.26
2016-07-10T10:19:31.391Z,962.28
2016-07-10T10:20:31.410Z,962.24
2016-07-10T10:21:31.410Z,962.22
2016-07-10T10:22:31.416Z,962.21
2016-07-10T10:23:31.427Z,962.19
2016-07-10T10:24:31.437Z,962.19
2016-07-10T10:25:31.456Z,962.23
2016-07-10T10:26:31.469Z,962.19
2016-07-10T10:27:31.475Z,962.16
2016-07-10T10:28:31.474Z,962.18
2016-07-10T10:29:31.485Z,962.14
2016-07-10T10:30:31.494Z,962.18
2016-07-10T10:31:31.503Z,962.18
2016-07-10T10:32:31.514Z,962.2
2016-07-10T10:33:31.533Z,962.18
2016-07-10T10:34:31.540Z,962.18
2016-07-10T10:35:31.540Z,962.14
2016-07-10T10:36:31.561Z,962.11
2016-07-10T10:37:31.559Z,962.11
2016-07-10T10:38:31.589Z,962.1
2016-07-10T10:39:31.580Z,962.04
2016-07-10T10:40:31.592Z,962.04
2016-07-10T10:41:31.609Z,962.02
2016-07-10T10:42:31.619Z,962.03
2016-07-10T10:43:31.617Z,962.01
2016-07-10T10:44:31.637Z,961.97
2016-07-10T10:45:31.645Z,961.98
2016-07-10T10:46:31.655Z,961.95
2016-07-10T10:47:31.666Z,961.95
2016-07-10T10:48:31.676Z,961.94
2016-07-10T10:49:31.686Z,961.92
2016-07-10T10:50:31.695Z,961.9
2016-07-10T10:51:31.704Z,961.93
2016-07-10T10:52:31.703Z,961.88
2016-07-10T10:53:31.724Z,961.92
2016-07-10T10:54:31.731Z,961.91
2016-07-10T10:55:31.731Z,961.9
2016-07-10T10:56:31.749Z,961.9
2016-07-10T10:57:31.760Z,961.86
2016-07-10T10:58:31.768Z,961.86
2016-07-10T10:59:31.771Z,961.78
2016-07-10T11:00:31.789Z,961.84
2016-07-10T11:01:31.786Z,961.85
2016-07-10T11:02:31.797Z,961.77
2016-07-10T11:03:31.819Z,961.75
2016-07-10T11:04:31.817Z,961.72
2016-07-10T11:05:31.838Z,961.73
2016-07-10T11:06:31.837Z,961.7
2016-07-10T11:07:31.857Z,961.66
2016-07-10T11:08:31.855Z,961.65
2016-07-10T11:09:31.862Z,961.65
2016-07-10T11:10:31.877Z,961.61
2016-07-10T11:11:31.898Z,961.62
2016-07-10T11:12:31.893Z,961.68
2016-07-10T11:13:31.906Z,961.61
2016-07-10T11:14:31.926Z,961.6
2016-07-10T11:15:31.932Z,961.65
2016-07-10T11:16:31.933Z,961.66
2016-07-10T11:17:31.943Z,961.62
2016-07-10T11:18:31.953Z,961.6
2016-07-10T11:19:31.963Z,961.66
2016-07-10T11:20:31.969Z,961.67
2016-07-10T11:21:31.983Z,961.65
2016-07-10T11:22:32.002Z,961.62
2016-07-10T11:23:31.998Z,961.62
2016-07-10T11:24:32.010Z,961.62
2016-07-10T11:25:32.032Z,961.57
2016-07-10T11:26:32.028Z,961.57
2016-07-10T11:27:32.041Z,961.54
2016-07-10T11:28:32.051Z,961.54
2016-07-10T11:29:32.068Z,961.52
2016-07-10T11:30:32.068Z,961.51
2016-07-10T11:31:32.089Z,961.52
2016-07-10T11:32:32.099Z,961.51
2016-07-10T11:33:32.098Z,961.49
2016-07-10T11:34:32.107Z,961.43
2016-07-10T11:35:32.130Z,961.44
2016-07-10T11:36:32.129Z,961.42
2016-07-10T11:37:32.138Z,961.42
2016-07-10T11:38:32.157Z,961.38
2016-07-10T11:39:32.179Z,961.38
2016-07-10T11:40:32.214Z,961.42
2016-07-10T11:41:32.186Z,961.4
2016-07-10T11:42:32.183Z,961.39
2016-07-10T11:43:32.196Z,961.35
2016-07-10T11:44:32.225Z,961.33
2016-07-10T11:45:32.225Z,961.36
2016-07-10T11:46:32.243Z,961.3
2016-07-10T11:47:32.246Z,961.26
2016-07-10T11:48:32.248Z,961.23
2016-07-10T11:49:32.268Z,961.27
2016-07-10T11:50:32.275Z,961.27
2016-07-10T11:51:32.286Z,961.24
2016-07-10T11:52:32.284Z,961.24
2016-07-10T11:53:32.295Z,961.18
2016-07-10T11:54:32.313Z,961.16
2016-07-10T11:55:32.327Z,961.18
2016-07-10T11:56:32.323Z,961.14
2016-07-10T11:57:32.344Z,961.18
2016-07-10T11:58:32.346Z,961.12
2016-07-10T11:59:32.354Z,961.12
2016-07-10T12:00:32.364Z,961.12
2016-07-10T12:01:32.372Z,961.12
2016-07-10T12:02:32.382Z,961.15
2016-07-10T12:03:32.392Z,961.14
2016-07-10T12:04:32.400Z,961.08
2016-07-10T12:05:32.425Z,961.07
2016-07-10T12:06:32.431Z,961.07
2016-07-10T12:07:32.442Z,961
2016-07-10T12:08:32.452Z,960.99
2016-07-10T12:09:32.451Z,960.98
2016-07-10T12:10:32.472Z,961.02
2016-07-10T12:11:32.470Z,961.02
2016-07-10T12:12:32.492Z,961.02
2016-07-10T12:13:32.491Z,961
2016-07-10T12:14:32.501Z,961.04
2016-07-10T12:15:32.523Z,960.97
2016-07-10T12:16:32.522Z,960.96
2016-07-10T12:17:32.531Z,960.94
2016-07-10T12:18:32.542Z,960.93
2016-07-10T12:19:32.564Z,960.95
2016-07-10T12:20:32.573Z,960.94
2016-07-10T12:21:32.582Z,960.93
2016-07-10T12:22:32.581Z,960.92
2016-07-10T12:23:32.602Z,960.89
2016-07-10T12:24:32.603Z,960.88
2016-07-10T12:25:32.623Z,960.82
2016-07-10T12:26:32.623Z,960.88
2016-07-10T12:27:32.643Z,960.82
2016-07-10T12:28:32.653Z,960.87
2016-07-10T12:29:32.661Z,960.81
2016-07-10T12:30:32.662Z,960.81